sensor_id;sensor_type;location;lat;lon;timestamp;temperature;humidity
49222;DHT22;35047;37.588;-122.048;2022-11-25T00:01:05;19.60;51.50
49222;DHT22;35047;37.588;-122.048;2022-11-25T00:03:32;19.60;52.50
49222;DHT22;35047;37.588;-122.048;2022-11-25T00:06:18;19.50;53.80
49222;DHT22;35047;37.588;-122.048;2022-11-25T00:08:48;19.60;51.70
49222;DHT22;35047;37.588;-122.048;2022-11-25T00:11:16;19.50;52.80
49222;DHT22;35047;37.588;-122.048;2022-11-25T00:13:44;19.30;53.70
49222;DHT22;35047;37.588;-122.048;2022-11-25T00:16:12;19.30;54.40
49222;DHT22;35047;37.588;-122.048;2022-11-25T00:18:39;19.40;53.30
49222;DHT22;35047;37.588;-122.048;2022-11-25T00:21:11;19.20;54.10
49222;DHT22;35047;37.588;-122.048;2022-11-25T00:23:39;19.10;54.30
49222;DHT22;35047;37.588;-122.048;2022-11-25T00:26:07;19.00;55.30
49222;DHT22;35047;37.588;-122.048;2022-11-25T00:28:35;18.80;55.30
49222;DHT22;35047;37.588;-122.048;2022-11-25T00:31:07;18.50;56.00
49222;DHT22;35047;37.588;-122.048;2022-11-25T00:33:35;18.40;56.80
49222;DHT22;35047;37.588;-122.048;2022-11-25T00:36:04;18.20;56.90
49222;DHT22;35047;37.588;-122.048;2022-11-25T00:38:31;18.00;57.50
49222;DHT22;35047;37.588;-122.048;2022-11-25T00:40:58;18.00;58.60
49222;DHT22;35047;37.588;-122.048;2022-11-25T00:43:43;18.40;58.90
49222;DHT22;35047;37.588;-122.048;2022-11-25T00:46:29;18.50;58.10
49222;DHT22;35047;37.588;-122.048;2022-11-25T00:48:56;18.80;57.20
49222;DHT22;35047;37.588;-122.048;2022-11-25T00:51:23;19.10;57.40
49222;DHT22;35047;37.588;-122.048;2022-11-25T00:53:50;19.50;56.30
49222;DHT22;35047;37.588;-122.048;2022-11-25T00:56:17;19.80;56.00
49222;DHT22;35047;37.588;-122.048;2022-11-25T00:58:44;19.60;55.70
49222;DHT22;35047;37.588;-122.048;2022-11-25T01:01:11;19.60;55.50
49222;DHT22;35047;37.588;-122.048;2022-11-25T01:03:38;19.10;56.90
49222;DHT22;35047;37.588;-122.048;2022-11-25T01:06:08;18.90;56.00
49222;DHT22;35047;37.588;-122.048;2022-11-25T01:08:36;18.80;58.20
49222;DHT22;35047;37.588;-122.048;2022-11-25T01:11:09;19.10;56.90
49222;DHT22;35047;37.588;-122.048;2022-11-25T01:13:36;19.20;56.90
49222;DHT22;35047;37.588;-122.048;2022-11-25T01:16:05;18.40;58.00
49222;DHT22;35047;37.588;-122.048;2022-11-25T01:18:33;17.60;58.10
49222;DHT22;35047;37.588;-122.048;2022-11-25T01:21:16;17.00;60.30
49222;DHT22;35047;37.588;-122.048;2022-11-25T01:23:43;16.60;61.60
49222;DHT22;35047;37.588;-122.048;2022-11-25T01:26:15;16.40;63.20
49222;DHT22;35047;37.588;-122.048;2022-11-25T01:28:43;16.60;64.20
49222;DHT22;35047;37.588;-122.048;2022-11-25T01:31:18;17.20;62.60
49222;DHT22;35047;37.588;-122.048;2022-11-25T01:33:46;16.80;62.10
49222;DHT22;35047;37.588;-122.048;2022-11-25T01:36:17;17.30;61.90
49222;DHT22;35047;37.588;-122.048;2022-11-25T01:38:48;17.50;61.50
49222;DHT22;35047;37.588;-122.048;2022-11-25T01:41:16;16.90;60.60
49222;DHT22;35047;37.588;-122.048;2022-11-25T01:43:43;16.70;62.60
49222;DHT22;35047;37.588;-122.048;2022-11-25T01:46:35;16.40;63.40
49222;DHT22;35047;37.588;-122.048;2022-11-25T01:49:06;17.20;62.90
49222;DHT22;35047;37.588;-122.048;2022-11-25T01:51:47;17.50;61.60
49222;DHT22;35047;37.588;-122.048;2022-11-25T01:54:18;16.80;61.60
49222;DHT22;35047;37.588;-122.048;2022-11-25T01:57:00;17.10;62.80
49222;DHT22;35047;37.588;-122.048;2022-11-25T01:59:29;16.80;62.10
49222;DHT22;35047;37.588;-122.048;2022-11-25T02:01:58;17.10;63.10
49222;DHT22;35047;37.588;-122.048;2022-11-25T02:04:29;16.70;62.60
49222;DHT22;35047;37.588;-122.048;2022-11-25T02:07:03;16.90;63.80
49222;DHT22;35047;37.588;-122.048;2022-11-25T02:09:33;16.80;62.60
49222;DHT22;35047;37.588;-122.048;2022-11-25T02:12:00;16.40;63.60
49222;DHT22;35047;37.588;-122.048;2022-11-25T02:14:27;15.70;65.10
49222;DHT22;35047;37.588;-122.048;2022-11-25T02:16:53;15.40;68.00
49222;DHT22;35047;37.588;-122.048;2022-11-25T02:19:52;14.90;68.90
49222;DHT22;35047;37.588;-122.048;2022-11-25T02:27:45;13.90;72.70
49222;DHT22;35047;37.588;-122.048;2022-11-25T02:30:14;14.20;73.60
49222;DHT22;35047;37.588;-122.048;2022-11-25T02:32:44;14.40;72.20
49222;DHT22;35047;37.588;-122.048;2022-11-25T02:35:34;14.00;72.80
49222;DHT22;35047;37.588;-122.048;2022-11-25T02:40:58;15.30;71.50
49222;DHT22;35047;37.588;-122.048;2022-11-25T02:43:28;16.20;67.90
49222;DHT22;35047;37.588;-122.048;2022-11-25T02:46:00;15.60;67.40
49222;DHT22;35047;37.588;-122.048;2022-11-25T02:48:31;16.30;68.40
49222;DHT22;35047;37.588;-122.048;2022-11-25T02:50:58;17.00;66.30
49222;DHT22;35047;37.588;-122.048;2022-11-25T02:53:26;17.20;62.60
49222;DHT22;35047;37.588;-122.048;2022-11-25T02:55:52;17.80;63.60
49222;DHT22;35047;37.588;-122.048;2022-11-25T02:58:21;19.30;59.50
49222;DHT22;35047;37.588;-122.048;2022-11-25T03:00:47;20.40;57.30
49222;DHT22;35047;37.588;-122.048;2022-11-25T03:03:15;20.10;54.40
49222;DHT22;35047;37.588;-122.048;2022-11-25T03:05:41;19.30;58.40
49222;DHT22;35047;37.588;-122.048;2022-11-25T03:08:09;19.00;55.90
49222;DHT22;35047;37.588;-122.048;2022-11-25T03:10:36;17.60;60.00
49222;DHT22;35047;37.588;-122.048;2022-11-25T03:13:04;17.60;62.50
49222;DHT22;35047;37.588;-122.048;2022-11-25T03:15:31;18.80;60.70
49222;DHT22;35047;37.588;-122.048;2022-11-25T03:17:58;20.40;57.40
49222;DHT22;35047;37.588;-122.048;2022-11-25T03:20:25;21.70;53.40
49222;DHT22;35047;37.588;-122.048;2022-11-25T03:22:51;22.60;51.60
49222;DHT22;35047;37.588;-122.048;2022-11-25T03:25:18;23.10;49.70
49222;DHT22;35047;37.588;-122.048;2022-11-25T03:27:45;22.70;49.20
49222;DHT22;35047;37.588;-122.048;2022-11-25T03:30:16;21.30;50.20
49222;DHT22;35047;37.588;-122.048;2022-11-25T03:32:43;21.20;52.60
49222;DHT22;35047;37.588;-122.048;2022-11-25T03:35:11;22.00;51.30
49222;DHT22;35047;37.588;-122.048;2022-11-25T03:37:37;20.80;50.50
49222;DHT22;35047;37.588;-122.048;2022-11-25T03:40:06;20.00;54.30
49222;DHT22;35047;37.588;-122.048;2022-11-25T03:42:33;20.90;53.20
49222;DHT22;35047;37.588;-122.048;2022-11-25T03:45:01;19.90;52.80
49222;DHT22;35047;37.588;-122.048;2022-11-25T03:47:27;18.10;56.80
49222;DHT22;35047;37.588;-122.048;2022-11-25T03:49:54;16.80;59.40
49222;DHT22;35047;37.588;-122.048;2022-11-25T03:52:21;16.30;64.20
49222;DHT22;35047;37.588;-122.048;2022-11-25T03:54:48;16.70;61.30
49222;DHT22;35047;37.588;-122.048;2022-11-25T03:57:15;16.70;63.30
49222;DHT22;35047;37.588;-122.048;2022-11-25T03:59:42;17.40;62.20
49222;DHT22;35047;37.588;-122.048;2022-11-25T04:02:09;17.20;61.60
49222;DHT22;35047;37.588;-122.048;2022-11-25T04:04:35;17.70;60.30
49222;DHT22;35047;37.588;-122.048;2022-11-25T04:07:02;17.70;60.10
49222;DHT22;35047;37.588;-122.048;2022-11-25T04:09:29;16.80;61.60
49222;DHT22;35047;37.588;-122.048;2022-11-25T04:11:55;17.50;61.30
49222;DHT22;35047;37.588;-122.048;2022-11-25T04:14:40;17.50;60.10
49222;DHT22;35047;37.588;-122.048;2022-11-25T04:17:07;17.10;61.60
49222;DHT22;35047;37.588;-122.048;2022-11-25T04:19:35;17.30;61.90
49222;DHT22;35047;37.588;-122.048;2022-11-25T04:22:01;17.20;59.90
49222;DHT22;35047;37.588;-122.048;2022-11-25T04:24:28;16.10;63.50
49222;DHT22;35047;37.588;-122.048;2022-11-25T04:26:55;15.90;65.20
49222;DHT22;35047;37.588;-122.048;2022-11-25T04:29:22;15.90;65.70
49222;DHT22;35047;37.588;-122.048;2022-11-25T04:31:48;15.90;65.40
49222;DHT22;35047;37.588;-122.048;2022-11-25T04:34:17;16.10;64.70
49222;DHT22;35047;37.588;-122.048;2022-11-25T04:36:43;15.40;63.50
49222;DHT22;35047;37.588;-122.048;2022-11-25T04:39:10;14.20;67.60
49222;DHT22;35047;37.588;-122.048;2022-11-25T04:41:37;14.30;71.10
49222;DHT22;35047;37.588;-122.048;2022-11-25T04:44:04;14.70;67.40
49222;DHT22;35047;37.588;-122.048;2022-11-25T04:46:36;14.00;70.10
49222;DHT22;35047;37.588;-122.048;2022-11-25T04:49:05;15.00;69.60
49222;DHT22;35047;37.588;-122.048;2022-11-25T04:51:32;16.40;66.40
49222;DHT22;35047;37.588;-122.048;2022-11-25T04:53:59;15.70;66.10
49222;DHT22;35047;37.588;-122.048;2022-11-25T04:56:26;16.90;64.50
49222;DHT22;35047;37.588;-122.048;2022-11-25T04:58:53;18.00;60.90
49222;DHT22;35047;37.588;-122.048;2022-11-25T05:01:38;18.70;59.80
49222;DHT22;35047;37.588;-122.048;2022-11-25T05:04:05;19.20;57.90
49222;DHT22;35047;37.588;-122.048;2022-11-25T05:06:32;19.70;56.30
49222;DHT22;35047;37.588;-122.048;2022-11-25T05:08:59;18.90;57.50
49222;DHT22;35047;37.588;-122.048;2022-11-25T05:11:26;19.50;56.80
49222;DHT22;35047;37.588;-122.048;2022-11-25T05:13:53;20.20;55.40
49222;DHT22;35047;37.588;-122.048;2022-11-25T05:16:19;20.60;54.20
49222;DHT22;35047;37.588;-122.048;2022-11-25T05:18:46;20.10;52.30
49222;DHT22;35047;37.588;-122.048;2022-11-25T05:21:13;18.90;57.10
49222;DHT22;35047;37.588;-122.048;2022-11-25T05:23:40;19.70;55.70
49222;DHT22;35047;37.588;-122.048;2022-11-25T05:26:07;20.30;54.70
49222;DHT22;35047;37.588;-122.048;2022-11-25T05:28:33;20.10;54.60
49222;DHT22;35047;37.588;-122.048;2022-11-25T05:31:01;18.10;56.40
49222;DHT22;35047;37.588;-122.048;2022-11-25T05:33:27;18.10;59.70
49222;DHT22;35047;37.588;-122.048;2022-11-25T05:35:56;19.40;56.70
49222;DHT22;35047;37.588;-122.048;2022-11-25T05:38:23;20.30;54.80
49222;DHT22;35047;37.588;-122.048;2022-11-25T05:40:50;20.90;53.30
49222;DHT22;35047;37.588;-122.048;2022-11-25T05:43:17;20.90;52.40
49222;DHT22;35047;37.588;-122.048;2022-11-25T05:45:43;21.10;52.30
49222;DHT22;35047;37.588;-122.048;2022-11-25T05:48:10;19.90;52.30
49222;DHT22;35047;37.588;-122.048;2022-11-25T05:50:37;19.70;54.70
49222;DHT22;35047;37.588;-122.048;2022-11-25T05:53:04;20.60;53.00
49222;DHT22;35047;37.588;-122.048;2022-11-25T05:55:30;20.80;52.30
49222;DHT22;35047;37.588;-122.048;2022-11-25T05:57:58;21.50;50.90
49222;DHT22;35047;37.588;-122.048;2022-11-25T06:00:26;21.30;51.20
49222;DHT22;35047;37.588;-122.048;2022-11-25T06:02:52;19.90;50.90
49222;DHT22;35047;37.588;-122.048;2022-11-25T06:05:20;19.90;54.20
49222;DHT22;35047;37.588;-122.048;2022-11-25T06:07:47;20.70;52.20
49222;DHT22;35047;37.588;-122.048;2022-11-25T06:10:16;20.00;53.00
49222;DHT22;35047;37.588;-122.048;2022-11-25T06:12:43;20.70;52.50
49222;DHT22;35047;37.588;-122.048;2022-11-25T06:15:11;21.20;51.70
49222;DHT22;35047;37.588;-122.048;2022-11-25T06:17:38;21.50;51.00
49222;DHT22;35047;37.588;-122.048;2022-11-25T06:20:06;21.60;50.00
49222;DHT22;35047;37.588;-122.048;2022-11-25T06:22:32;20.10;52.30
49222;DHT22;35047;37.588;-122.048;2022-11-25T06:25:00;21.00;51.00
49222;DHT22;35047;37.588;-122.048;2022-11-25T06:27:26;21.40;50.50
49222;DHT22;35047;37.588;-122.048;2022-11-25T06:29:53;21.70;49.90
49222;DHT22;35047;37.588;-122.048;2022-11-25T06:32:19;21.40;49.70
49222;DHT22;35047;37.588;-122.048;2022-11-25T06:34:46;20.40;50.80
49222;DHT22;35047;37.588;-122.048;2022-11-25T06:37:13;21.30;49.20
49222;DHT22;35047;37.588;-122.048;2022-11-25T06:39:39;21.40;49.30
49222;DHT22;35047;37.588;-122.048;2022-11-25T06:42:06;21.80;49.50
49222;DHT22;35047;37.588;-122.048;2022-11-25T06:44:33;20.40;49.90
49222;DHT22;35047;37.588;-122.048;2022-11-25T06:47:00;19.90;50.40
49222;DHT22;35047;37.588;-122.048;2022-11-25T06:49:27;20.20;52.00
49222;DHT22;35047;37.588;-122.048;2022-11-25T06:51:54;20.80;49.00
49222;DHT22;35047;37.588;-122.048;2022-11-25T06:54:21;21.40;49.80
49222;DHT22;35047;37.588;-122.048;2022-11-25T06:56:48;21.80;48.90
49222;DHT22;35047;37.588;-122.048;2022-11-25T06:59:19;22.20;47.60
49222;DHT22;35047;37.588;-122.048;2022-11-25T07:01:47;22.40;47.60
49222;DHT22;35047;37.588;-122.048;2022-11-25T07:04:14;21.50;49.40
49222;DHT22;35047;37.588;-122.048;2022-11-25T07:06:40;22.10;48.30
49222;DHT22;35047;37.588;-122.048;2022-11-25T07:09:08;22.40;47.70
49222;DHT22;35047;37.588;-122.048;2022-11-25T07:11:37;22.50;47.40
49222;DHT22;35047;37.588;-122.048;2022-11-25T07:14:07;22.50;47.50
49222;DHT22;35047;37.588;-122.048;2022-11-25T07:16:37;22.60;47.40
49222;DHT22;35047;37.588;-122.048;2022-11-25T07:19:04;21.30;47.20
49222;DHT22;35047;37.588;-122.048;2022-11-25T07:21:32;20.20;49.00
49222;DHT22;35047;37.588;-122.048;2022-11-25T07:24:01;19.00;52.40
49222;DHT22;35047;37.588;-122.048;2022-11-25T07:26:30;20.60;51.00
49222;DHT22;35047;37.588;-122.048;2022-11-25T07:29:00;21.40;48.70
49222;DHT22;35047;37.588;-122.048;2022-11-25T07:31:32;20.80;50.00
49222;DHT22;35047;37.588;-122.048;2022-11-25T07:34:04;21.30;48.80
49222;DHT22;35047;37.588;-122.048;2022-11-25T07:36:34;20.60;47.70
49222;DHT22;35047;37.588;-122.048;2022-11-25T07:39:04;19.60;49.30
49222;DHT22;35047;37.588;-122.048;2022-11-25T07:41:32;17.20;53.80
49222;DHT22;35047;37.588;-122.048;2022-11-25T07:44:02;17.90;56.30
49222;DHT22;35047;37.588;-122.048;2022-11-25T07:46:34;18.40;55.10
49222;DHT22;35047;37.588;-122.048;2022-11-25T07:49:04;20.10;52.10
49222;DHT22;35047;37.588;-122.048;2022-11-25T07:54:00;21.70;49.00
49222;DHT22;35047;37.588;-122.048;2022-11-25T07:56:28;22.10;48.00
49222;DHT22;35047;37.588;-122.048;2022-11-25T07:58:56;22.40;47.60
49222;DHT22;35047;37.588;-122.048;2022-11-25T08:01:23;21.70;48.10
49222;DHT22;35047;37.588;-122.048;2022-11-25T08:03:51;21.50;48.40
49222;DHT22;35047;37.588;-122.048;2022-11-25T08:06:22;21.80;48.20
49222;DHT22;35047;37.588;-122.048;2022-11-25T08:08:49;22.20;47.60
49222;DHT22;35047;37.588;-122.048;2022-11-25T08:11:22;21.60;47.20
49222;DHT22;35047;37.588;-122.048;2022-11-25T08:13:49;21.40;47.80
49222;DHT22;35047;37.588;-122.048;2022-11-25T08:16:19;21.40;48.00
49222;DHT22;35047;37.588;-122.048;2022-11-25T08:18:46;22.40;46.90
49222;DHT22;35047;37.588;-122.048;2022-11-25T08:21:14;22.70;46.20
49222;DHT22;35047;37.588;-122.048;2022-11-25T08:23:42;23.00;45.50
49222;DHT22;35047;37.588;-122.048;2022-11-25T08:26:16;23.00;45.30
49222;DHT22;35047;37.588;-122.048;2022-11-25T08:28:44;21.80;43.80
49222;DHT22;35047;37.588;-122.048;2022-11-25T08:31:19;20.00;47.10
49222;DHT22;35047;37.588;-122.048;2022-11-25T08:33:47;19.70;50.70
49222;DHT22;35047;37.588;-122.048;2022-11-25T08:36:15;20.90;49.00
49222;DHT22;35047;37.588;-122.048;2022-11-25T08:38:45;21.70;47.60
49222;DHT22;35047;37.588;-122.048;2022-11-25T08:41:15;22.20;46.70
49222;DHT22;35047;37.588;-122.048;2022-11-25T08:43:43;22.30;46.40
49222;DHT22;35047;37.588;-122.048;2022-11-25T08:46:12;22.10;46.60
49222;DHT22;35047;37.588;-122.048;2022-11-25T08:48:39;22.50;46.10
49222;DHT22;35047;37.588;-122.048;2022-11-25T08:51:09;22.60;45.50
49222;DHT22;35047;37.588;-122.048;2022-11-25T08:53:38;21.90;46.10
49222;DHT22;35047;37.588;-122.048;2022-11-25T08:56:07;21.30;45.50
49222;DHT22;35047;37.588;-122.048;2022-11-25T08:58:34;21.50;46.70
49222;DHT22;35047;37.588;-122.048;2022-11-25T09:01:03;21.90;46.80
49222;DHT22;35047;37.588;-122.048;2022-11-25T09:03:38;22.20;45.80
49222;DHT22;35047;37.588;-122.048;2022-11-25T09:06:06;21.50;46.80
49222;DHT22;35047;37.588;-122.048;2022-11-25T09:08:35;20.20;48.00
49222;DHT22;35047;37.588;-122.048;2022-11-25T09:11:03;20.60;48.10
49222;DHT22;35047;37.588;-122.048;2022-11-25T09:13:30;21.40;47.10
49222;DHT22;35047;37.588;-122.048;2022-11-25T09:15:56;21.80;46.40
49222;DHT22;35047;37.588;-122.048;2022-11-25T09:18:24;21.40;46.00
49222;DHT22;35047;37.588;-122.048;2022-11-25T09:20:52;20.40;45.90
49222;DHT22;35047;37.588;-122.048;2022-11-25T09:23:19;18.00;49.40
49222;DHT22;35047;37.588;-122.048;2022-11-25T09:25:56;16.90;55.00
49222;DHT22;35047;37.588;-122.048;2022-11-25T09:28:24;18.00;54.60
49222;DHT22;35047;37.588;-122.048;2022-11-25T09:30:51;19.70;51.00
49222;DHT22;35047;37.588;-122.048;2022-11-25T09:33:18;19.60;48.30
49222;DHT22;35047;37.588;-122.048;2022-11-25T09:35:45;19.60;50.60
49222;DHT22;35047;37.588;-122.048;2022-11-25T09:38:12;20.60;48.90
49222;DHT22;35047;37.588;-122.048;2022-11-25T09:47:10;19.40;50.10
49222;DHT22;35047;37.588;-122.048;2022-11-25T09:55:41;16.00;57.80
49222;DHT22;35047;37.588;-122.048;2022-11-25T10:01:17;15.50;57.30
49222;DHT22;35047;37.588;-122.048;2022-11-25T10:06:23;16.70;53.40
49222;DHT22;35047;37.588;-122.048;2022-11-25T10:08:57;16.00;58.70
49222;DHT22;35047;37.588;-122.048;2022-11-25T10:14:27;18.80;53.00
49222;DHT22;35047;37.588;-122.048;2022-11-25T10:22:43;20.90;48.70
49222;DHT22;35047;37.588;-122.048;2022-11-25T10:30:26;21.10;47.10
49222;DHT22;35047;37.588;-122.048;2022-11-25T10:35:42;20.60;46.40
49222;DHT22;35047;37.588;-122.048;2022-11-25T10:38:19;19.80;49.80
49222;DHT22;35047;37.588;-122.048;2022-11-25T10:40:50;20.60;48.00
49222;DHT22;35047;37.588;-122.048;2022-11-25T10:43:17;21.00;48.20
49222;DHT22;35047;37.588;-122.048;2022-11-25T10:46:04;21.10;47.60
49222;DHT22;35047;37.588;-122.048;2022-11-25T10:54:26;21.30;47.10
49222;DHT22;35047;37.588;-122.048;2022-11-25T10:56:57;21.40;47.00
49222;DHT22;35047;37.588;-122.048;2022-11-25T10:59:30;21.10;47.00
49222;DHT22;35047;37.588;-122.048;2022-11-25T11:02:26;20.90;47.80
49222;DHT22;35047;37.588;-122.048;2022-11-25T11:05:14;21.00;47.60
49222;DHT22;35047;37.588;-122.048;2022-11-25T11:07:43;20.90;47.50
49222;DHT22;35047;37.588;-122.048;2022-11-25T11:10:15;20.20;49.20
49222;DHT22;35047;37.588;-122.048;2022-11-25T11:15:28;20.90;48.40
49222;DHT22;35047;37.588;-122.048;2022-11-25T11:17:58;21.10;46.60
49222;DHT22;35047;37.588;-122.048;2022-11-25T11:20:30;20.80;47.60
49222;DHT22;35047;37.588;-122.048;2022-11-25T11:23:13;20.90;48.10
49222;DHT22;35047;37.588;-122.048;2022-11-25T11:26:03;19.70;46.90
49222;DHT22;35047;37.588;-122.048;2022-11-25T11:36:32;18.80;51.90
49222;DHT22;35047;37.588;-122.048;2022-11-25T11:41:42;20.50;47.70
49222;DHT22;35047;37.588;-122.048;2022-11-25T11:47:29;16.90;52.50
49222;DHT22;35047;37.588;-122.048;2022-11-25T11:50:19;14.80;58.40
49222;DHT22;35047;37.588;-122.048;2022-11-25T12:01:24;20.00;49.00
49222;DHT22;35047;37.588;-122.048;2022-11-25T12:06:25;17.20;54.50
49222;DHT22;35047;37.588;-122.048;2022-11-25T12:09:00;17.00;52.80
49222;DHT22;35047;37.588;-122.048;2022-11-25T12:11:43;18.10;52.50
49222;DHT22;35047;37.588;-122.048;2022-11-25T12:14:26;19.20;51.50
49222;DHT22;35047;37.588;-122.048;2022-11-25T12:16:58;19.00;50.50
49222;DHT22;35047;37.588;-122.048;2022-11-25T12:22:41;20.40;48.70
49222;DHT22;35047;37.588;-122.048;2022-11-25T12:25:18;20.40;48.20
49222;DHT22;35047;37.588;-122.048;2022-11-25T12:28:26;20.70;47.50
49222;DHT22;35047;37.588;-122.048;2022-11-25T12:31:04;18.80;50.70
49222;DHT22;35047;37.588;-122.048;2022-11-25T12:36:41;20.40;48.50
49222;DHT22;35047;37.588;-122.048;2022-11-25T12:41:58;20.60;45.90
49222;DHT22;35047;37.588;-122.048;2022-11-25T12:47:14;20.30;48.00
49222;DHT22;35047;37.588;-122.048;2022-11-25T12:49:43;20.90;47.10
49222;DHT22;35047;37.588;-122.048;2022-11-25T13:06:44;21.00;46.40
49222;DHT22;35047;37.588;-122.048;2022-11-25T13:17:56;15.40;59.40
49222;DHT22;35047;37.588;-122.048;2022-11-25T13:25:34;15.70;57.10
49222;DHT22;35047;37.588;-122.048;2022-11-25T13:28:05;17.80;54.00
49222;DHT22;35047;37.588;-122.048;2022-11-25T13:30:52;18.80;52.00
49222;DHT22;35047;37.588;-122.048;2022-11-25T13:35:55;18.50;47.30
49222;DHT22;35047;37.588;-122.048;2022-11-25T13:38:36;18.20;50.80
49222;DHT22;35047;37.588;-122.048;2022-11-25T13:41:32;19.10;49.90
49222;DHT22;35047;37.588;-122.048;2022-11-25T13:44:19;19.80;48.60
49222;DHT22;35047;37.588;-122.048;2022-11-25T13:46:52;18.50;47.10
49222;DHT22;35047;37.588;-122.048;2022-11-25T13:49:28;18.50;51.00
49222;DHT22;35047;37.588;-122.048;2022-11-25T13:52:21;19.40;49.60
49222;DHT22;35047;37.588;-122.048;2022-11-25T13:54:53;19.40;48.00
49222;DHT22;35047;37.588;-122.048;2022-11-25T13:57:28;19.80;48.30
49222;DHT22;35047;37.588;-122.048;2022-11-25T14:02:47;20.30;47.20
49222;DHT22;35047;37.588;-122.048;2022-11-25T14:11:30;18.80;47.40
49222;DHT22;35047;37.588;-122.048;2022-11-25T14:22:31;18.80;50.20
49222;DHT22;35047;37.588;-122.048;2022-11-25T14:25:20;18.30;50.80
49222;DHT22;35047;37.588;-122.048;2022-11-25T14:27:50;16.70;49.70
49222;DHT22;35047;37.588;-122.048;2022-11-25T14:30:18;14.60;54.80
49222;DHT22;35047;37.588;-122.048;2022-11-25T14:32:55;13.30;58.40
49222;DHT22;35047;37.588;-122.048;2022-11-25T14:35:39;14.30;61.40
49222;DHT22;35047;37.588;-122.048;2022-11-25T14:38:28;16.10;57.00
49222;DHT22;35047;37.588;-122.048;2022-11-25T14:41:03;15.10;54.30
49222;DHT22;35047;37.588;-122.048;2022-11-25T14:43:39;13.90;58.10
49222;DHT22;35047;37.588;-122.048;2022-11-25T14:46:15;15.80;57.60
49222;DHT22;35047;37.588;-122.048;2022-11-25T14:48:43;16.80;54.70
49222;DHT22;35047;37.588;-122.048;2022-11-25T14:51:12;16.20;54.40
49222;DHT22;35047;37.588;-122.048;2022-11-25T14:53:44;16.80;58.30
49222;DHT22;35047;37.588;-122.048;2022-11-25T14:56:14;17.90;52.40
49222;DHT22;35047;37.588;-122.048;2022-11-25T14:58:46;17.80;51.30
49222;DHT22;35047;37.588;-122.048;2022-11-25T15:01:34;17.90;51.50
49222;DHT22;35047;37.588;-122.048;2022-11-25T15:04:19;18.20;50.80
49222;DHT22;35047;37.588;-122.048;2022-11-25T15:06:55;17.30;51.10
49222;DHT22;35047;37.588;-122.048;2022-11-25T15:09:30;17.80;50.70
49222;DHT22;35047;37.588;-122.048;2022-11-25T15:12:00;18.70;50.00
49222;DHT22;35047;37.588;-122.048;2022-11-25T15:14:36;19.10;49.10
49222;DHT22;35047;37.588;-122.048;2022-11-25T15:17:30;19.00;48.90
49222;DHT22;35047;37.588;-122.048;2022-11-25T15:20:09;18.50;49.50
49222;DHT22;35047;37.588;-122.048;2022-11-25T15:22:38;19.30;48.40
49222;DHT22;35047;37.588;-122.048;2022-11-25T15:25:08;18.10;50.40
49222;DHT22;35047;37.588;-122.048;2022-11-25T15:27:49;19.10;49.50
49222;DHT22;35047;37.588;-122.048;2022-11-25T15:30:27;19.20;49.30
49222;DHT22;35047;37.588;-122.048;2022-11-25T15:32:55;19.10;49.20
49222;DHT22;35047;37.588;-122.048;2022-11-25T15:35:25;19.30;49.90
49222;DHT22;35047;37.588;-122.048;2022-11-25T15:37:52;19.30;49.40
49222;DHT22;35047;37.588;-122.048;2022-11-25T15:40:39;19.70;49.00
49222;DHT22;35047;37.588;-122.048;2022-11-25T15:43:24;20.00;48.20
49222;DHT22;35047;37.588;-122.048;2022-11-25T15:45:56;20.40;47.50
49222;DHT22;35047;37.588;-122.048;2022-11-25T15:48:32;19.80;48.20
49222;DHT22;35047;37.588;-122.048;2022-11-25T15:56:38;18.40;52.20
49222;DHT22;35047;37.588;-122.048;2022-11-25T16:02:37;20.20;48.80
49222;DHT22;35047;37.588;-122.048;2022-11-25T16:12:44;20.60;47.90
49222;DHT22;35047;37.588;-122.048;2022-11-25T16:15:17;20.40;47.90
49222;DHT22;35047;37.588;-122.048;2022-11-25T16:17:43;19.80;47.60
49222;DHT22;35047;37.588;-122.048;2022-11-25T16:20:20;17.80;50.00
49222;DHT22;35047;37.588;-122.048;2022-11-25T16:22:47;17.70;53.40
49222;DHT22;35047;37.588;-122.048;2022-11-25T16:25:15;18.80;52.00
49222;DHT22;35047;37.588;-122.048;2022-11-25T16:27:42;18.60;52.00
49222;DHT22;35047;37.588;-122.048;2022-11-25T16:30:18;18.10;52.40
49222;DHT22;35047;37.588;-122.048;2022-11-25T16:32:46;17.60;52.30
49222;DHT22;35047;37.588;-122.048;2022-11-25T16:35:15;16.30;56.20
49222;DHT22;35047;37.588;-122.048;2022-11-25T16:37:43;17.20;58.90
49222;DHT22;35047;37.588;-122.048;2022-11-25T16:40:12;18.80;55.60
49222;DHT22;35047;37.588;-122.048;2022-11-25T16:42:38;20.60;52.10
49222;DHT22;35047;37.588;-122.048;2022-11-25T16:45:28;21.80;50.10
49222;DHT22;35047;37.588;-122.048;2022-11-25T16:47:55;22.60;69.50
49222;DHT22;35047;37.588;-122.048;2022-11-25T16:50:22;22.40;49.00
49222;DHT22;35047;37.588;-122.048;2022-11-25T16:52:51;22.60;48.40
49222;DHT22;35047;37.588;-122.048;2022-11-25T16:55:17;22.30;48.70
49222;DHT22;35047;37.588;-122.048;2022-11-25T16:57:45;24.10;47.70
49222;DHT22;35047;37.588;-122.048;2022-11-25T17:00:15;25.20;45.10
49222;DHT22;35047;37.588;-122.048;2022-11-25T17:02:42;25.70;44.80
49222;DHT22;35047;37.588;-122.048;2022-11-25T17:05:19;26.10;44.30
49222;DHT22;35047;37.588;-122.048;2022-11-25T17:07:46;27.30;41.60
49222;DHT22;35047;37.588;-122.048;2022-11-25T17:10:15;27.80;40.50
49222;DHT22;35047;37.588;-122.048;2022-11-25T17:12:43;27.90;40.10
49222;DHT22;35047;37.588;-122.048;2022-11-25T17:15:16;27.70;39.20
49222;DHT22;35047;37.588;-122.048;2022-11-25T17:17:45;27.00;39.40
49222;DHT22;35047;37.588;-122.048;2022-11-25T17:20:18;25.40;38.90
49222;DHT22;35047;37.588;-122.048;2022-11-25T17:22:47;26.10;42.30
49222;DHT22;35047;37.588;-122.048;2022-11-25T17:25:14;25.80;39.60
49222;DHT22;35047;37.588;-122.048;2022-11-25T17:27:41;25.60;42.50
49222;DHT22;35047;37.588;-122.048;2022-11-25T17:30:22;26.60;41.20
49222;DHT22;35047;37.588;-122.048;2022-11-25T17:33:02;26.00;39.10
49222;DHT22;35047;37.588;-122.048;2022-11-25T17:35:29;25.10;39.40
49222;DHT22;35047;37.588;-122.048;2022-11-25T17:37:57;24.00;42.70
49222;DHT22;35047;37.588;-122.048;2022-11-25T17:40:25;25.00;42.80
49222;DHT22;35047;37.588;-122.048;2022-11-25T17:42:52;25.20;44.20
49222;DHT22;35047;37.588;-122.048;2022-11-25T17:45:20;25.20;43.70